createdAt,value
2022-11-17T00:02:19.911Z,9.22
2022-11-17T00:04:47.527Z,9.26
2022-11-17T00:07:15.228Z,9.25
2022-11-17T00:09:42.980Z,9.27
2022-11-17T00:12:32.666Z,9.30
2022-11-17T00:15:00.658Z,9.31
2022-11-17T00:17:31.066Z,9.31
2022-11-17T00:20:18.469Z,9.31
2022-11-17T00:22:46.055Z,9.33
2022-11-17T00:25:13.938Z,9.33
2022-11-17T00:27:41.478Z,9.34
2022-11-17T00:30:31.057Z,9.35
2022-11-17T00:33:22.059Z,9.33
2022-11-17T00:35:53.784Z,9.34
2022-11-17T00:38:21.567Z,9.38
2022-11-17T00:40:49.525Z,9.31
2022-11-17T00:43:17.120Z,9.33
2022-11-17T00:45:44.801Z,9.29
2022-11-17T00:48:14.154Z,9.33
2022-11-17T00:50:41.897Z,9.31
2022-11-17T00:53:09.533Z,9.38
2022-11-17T00:55:37.097Z,9.42
2022-11-17T00:58:06.056Z,9.39
2022-11-17T01:00:37.550Z,9.41
2022-11-17T01:03:06.039Z,9.41
2022-11-17T01:05:36.547Z,9.41
2022-11-17T01:08:04.486Z,9.43
2022-11-17T01:10:32.105Z,9.37
2022-11-17T01:12:59.755Z,9.34
2022-11-17T01:15:27.622Z,9.38
2022-11-17T01:17:55.604Z,9.35
2022-11-17T01:20:23.253Z,9.30
2022-11-17T01:22:56.149Z,9.24
2022-11-17T01:25:23.825Z,9.25
2022-11-17T01:27:52.044Z,9.18
2022-11-17T01:30:19.815Z,9.20
2022-11-17T01:32:47.356Z,9.18
2022-11-17T01:35:15.054Z,9.20
2022-11-17T01:37:43.561Z,9.15
2022-11-17T01:40:14.066Z,9.15
2022-11-17T01:42:43.107Z,9.15
2022-11-17T01:45:21.958Z,9.08
2022-11-17T01:47:52.224Z,9.05
2022-11-17T01:50:28.926Z,9.04
2022-11-17T01:52:59.902Z,9.04
2022-11-17T01:55:35.370Z,9.04
2022-11-17T01:58:08.280Z,9.05
2022-11-17T02:00:36.150Z,9.04
2022-11-17T02:03:06.995Z,9.03
2022-11-17T02:05:41.426Z,9.04
2022-11-17T02:08:10.998Z,9.05
2022-11-17T02:10:40.937Z,8.99
2022-11-17T02:13:09.262Z,8.99
2022-11-17T02:15:36.818Z,9.02
2022-11-17T02:18:05.617Z,9.00
2022-11-17T02:20:44.582Z,9.05
2022-11-17T02:23:57.306Z,9.01
2022-11-17T02:26:49.613Z,9.01
2022-11-17T02:29:25.225Z,9.02
2022-11-17T02:31:59.257Z,8.97
2022-11-17T02:34:38.051Z,8.94
2022-11-17T02:37:12.396Z,8.99
2022-11-17T02:39:48.090Z,8.96
2022-11-17T02:42:45.750Z,8.94
2022-11-17T02:45:19.408Z,8.93
2022-11-17T02:47:50.049Z,8.91
2022-11-17T02:59:29.386Z,8.81
2022-11-17T03:02:34.281Z,8.80
2022-11-17T03:05:12.058Z,8.79
2022-11-17T03:07:55.771Z,8.79
2022-11-17T03:10:29.721Z,8.75
2022-11-17T03:13:11.784Z,8.75
2022-11-17T03:15:43.488Z,8.81
2022-11-17T03:18:22.048Z,8.75
2022-11-17T03:21:00.280Z,8.78
2022-11-17T03:23:35.427Z,8.76
2022-11-17T03:26:07.570Z,8.73
2022-11-17T03:28:35.215Z,8.75
2022-11-17T03:31:07.080Z,8.74
2022-11-17T03:33:41.435Z,8.73
2022-11-17T03:36:14.078Z,8.75
2022-11-17T03:38:49.464Z,8.76
2022-11-17T03:41:21.282Z,8.74
2022-11-17T03:43:52.059Z,8.74
2022-11-17T03:46:21.717Z,8.78
2022-11-17T03:48:58.036Z,8.74
2022-11-17T03:52:16.068Z,8.77
2022-11-17T03:54:47.104Z,8.72
2022-11-17T03:57:22.204Z,8.71
2022-11-17T03:59:55.801Z,8.72
2022-11-17T04:02:24.808Z,8.71
2022-11-17T04:05:09.017Z,8.70
2022-11-17T04:07:40.048Z,8.71
2022-11-17T04:10:10.294Z,8.71
2022-11-17T04:12:56.131Z,8.75
2022-11-17T04:15:41.375Z,8.72
2022-11-17T04:18:08.960Z,8.69
2022-11-17T04:20:38.109Z,8.66
2022-11-17T04:23:08.024Z,8.67
2022-11-17T04:25:53.943Z,8.72
2022-11-17T04:28:46.713Z,8.67
2022-11-17T04:31:18.076Z,8.64
2022-11-17T04:34:11.236Z,8.68
2022-11-17T04:36:46.080Z,8.65
2022-11-17T04:39:14.959Z,8.67
2022-11-17T04:41:54.053Z,8.68
2022-11-17T04:44:25.149Z,8.69
2022-11-17T04:46:54.058Z,8.65
2022-11-17T04:49:22.981Z,8.63
2022-11-17T04:52:18.083Z,8.67
2022-11-17T04:54:49.589Z,8.66
2022-11-17T04:57:17.566Z,8.65
2022-11-17T04:59:45.075Z,8.66
2022-11-17T05:02:14.737Z,8.67
2022-11-17T05:04:57.445Z,8.64
2022-11-17T05:07:27.847Z,8.67
2022-11-17T05:09:56.143Z,8.65
2022-11-17T05:12:43.069Z,8.67
2022-11-17T05:15:11.465Z,8.68
2022-11-17T05:17:40.066Z,8.66
2022-11-17T05:20:09.672Z,8.68
2022-11-17T05:22:56.341Z,8.65
2022-11-17T05:25:23.908Z,8.73
2022-11-17T05:27:52.068Z,8.71
2022-11-17T05:30:20.556Z,8.70
2022-11-17T05:32:48.541Z,8.71
2022-11-17T05:35:16.273Z,8.69
2022-11-17T05:37:45.217Z,8.70
2022-11-17T05:40:13.151Z,8.69
2022-11-17T05:42:41.613Z,8.69
2022-11-17T05:45:10.258Z,8.70
2022-11-17T05:47:44.044Z,8.68
2022-11-17T05:50:12.127Z,8.69
2022-11-17T05:52:40.075Z,8.69
2022-11-17T05:58:06.464Z,8.71
2022-11-17T06:00:59.386Z,8.70
2022-11-17T06:03:34.101Z,8.70
2022-11-17T06:06:02.290Z,8.68
2022-11-17T06:08:31.982Z,8.67
2022-11-17T06:11:00.902Z,8.67
2022-11-17T06:13:29.163Z,8.67
2022-11-17T06:15:59.121Z,8.69
2022-11-17T06:18:31.555Z,8.63
2022-11-17T06:20:59.371Z,8.64
2022-11-17T06:23:29.649Z,8.65
2022-11-17T06:25:59.065Z,8.62
2022-11-17T06:28:31.935Z,8.63
2022-11-17T06:31:00.917Z,8.68
2022-11-17T06:33:31.091Z,8.68
2022-11-17T06:36:02.063Z,8.69
2022-11-17T06:38:31.365Z,8.67
2022-11-17T06:41:06.194Z,8.64
2022-11-17T06:43:38.183Z,8.66
2022-11-17T06:46:06.562Z,8.69
2022-11-17T06:48:35.850Z,8.72
2022-11-17T06:51:09.073Z,8.71
2022-11-17T06:53:38.194Z,8.73
2022-11-17T06:56:08.979Z,8.71
2022-11-17T06:58:41.303Z,8.77
2022-11-17T07:01:12.092Z,8.76
2022-11-17T07:03:43.084Z,8.77
2022-11-17T07:06:14.038Z,8.79
2022-11-17T07:08:41.650Z,8.81
2022-11-17T07:11:13.610Z,8.82
2022-11-17T07:13:42.481Z,8.86
2022-11-17T07:16:12.021Z,8.85
2022-11-17T07:18:42.476Z,8.88
2022-11-17T07:21:13.516Z,8.85
2022-11-17T07:23:48.103Z,8.90
2022-11-17T07:26:16.468Z,8.93
2022-11-17T07:28:45.391Z,8.91
2022-11-17T07:31:13.069Z,8.90
2022-11-17T07:33:40.610Z,8.91
2022-11-17T07:36:10.381Z,8.92
2022-11-17T07:38:40.666Z,8.93
2022-11-17T07:41:09.692Z,8.96
2022-11-17T07:43:37.485Z,8.98
2022-11-17T07:46:07.445Z,8.98
2022-11-17T07:48:37.656Z,9.03
2022-11-17T07:51:06.454Z,9.02
2022-11-17T07:53:36.409Z,9.02
2022-11-17T07:56:05.173Z,9.04
2022-11-17T07:58:33.228Z,9.06
2022-11-17T08:01:05.190Z,9.06
2022-11-17T08:03:35.229Z,9.08
2022-11-17T08:06:05.088Z,9.13
2022-11-17T08:08:33.078Z,9.15
2022-11-17T08:11:03.032Z,9.17
2022-11-17T08:13:31.662Z,9.16
2022-11-17T08:16:00.099Z,9.20
2022-11-17T08:18:32.193Z,9.22
2022-11-17T08:21:27.139Z,9.24
2022-11-17T08:23:56.101Z,9.26
2022-11-17T08:26:25.252Z,9.27
2022-11-17T08:28:58.068Z,9.29
2022-11-17T08:31:26.721Z,9.33
2022-11-17T08:33:54.279Z,9.34
2022-11-17T08:36:22.071Z,9.36
2022-11-17T08:38:51.021Z,9.40
2022-11-17T08:41:21.635Z,9.45
2022-11-17T08:43:50.061Z,9.48
2022-11-17T08:46:17.647Z,9.51
2022-11-17T08:48:45.221Z,9.54
2022-11-17T08:51:14.771Z,9.54
2022-11-17T08:53:42.839Z,9.57
2022-11-17T08:56:13.749Z,9.58
2022-11-17T08:58:43.106Z,9.63
2022-11-17T09:01:12.216Z,9.65
2022-11-17T09:03:44.027Z,9.71
2022-11-17T09:06:15.013Z,9.72
2022-11-17T09:08:46.090Z,9.71
2022-11-17T09:11:17.119Z,9.70
2022-11-17T09:13:45.542Z,9.72
2022-11-17T09:16:14.051Z,9.75
2022-11-17T09:18:42.340Z,9.77
2022-11-17T09:24:04.794Z,9.78
2022-11-17T09:26:34.217Z,9.79
2022-11-17T09:29:04.588Z,9.80
2022-11-17T09:31:33.181Z,9.82
2022-11-17T09:34:05.278Z,9.85
2022-11-17T09:36:35.152Z,9.87
2022-11-17T09:39:02.829Z,9.90
2022-11-17T09:41:36.715Z,9.91
2022-11-17T09:44:17.097Z,9.95
2022-11-17T09:46:55.575Z,9.97
2022-11-17T09:49:36.573Z,9.99
2022-11-17T09:52:18.467Z,10.01
2022-11-17T09:54:51.926Z,10.01
2022-11-17T09:57:26.278Z,10.02
2022-11-17T10:00:03.487Z,10.04
2022-11-17T10:02:34.310Z,10.07
2022-11-17T10:05:02.177Z,10.09
2022-11-17T10:07:34.312Z,10.10
2022-11-17T10:10:04.494Z,10.13
2022-11-17T10:12:45.501Z,10.18
2022-11-17T10:15:23.043Z,10.22
2022-11-17T10:17:51.492Z,10.23
2022-11-17T10:20:20.082Z,10.26
2022-11-17T10:22:49.329Z,10.29
2022-11-17T10:25:38.582Z,10.31
2022-11-17T10:28:10.313Z,10.32
2022-11-17T10:30:39.501Z,10.36
2022-11-17T10:33:07.129Z,10.37
2022-11-17T10:35:37.062Z,10.34
2022-11-17T10:38:07.165Z,10.36
2022-11-17T10:40:48.002Z,10.40
2022-11-17T10:43:26.792Z,10.41
2022-11-17T10:45:57.541Z,10.46
2022-11-17T10:48:28.677Z,10.47
2022-11-17T10:50:59.064Z,10.56
2022-11-17T10:53:35.891Z,10.59
2022-11-17T10:56:14.073Z,10.63
2022-11-17T10:59:00.652Z,10.66
2022-11-17T11:01:33.348Z,10.74
2022-11-17T11:04:05.085Z,10.79
2022-11-17T11:06:35.248Z,10.89
2022-11-17T11:09:11.428Z,10.89
2022-11-17T11:11:44.889Z,10.93
2022-11-17T11:14:32.286Z,10.96
2022-11-17T11:17:00.605Z,11.01
2022-11-17T11:19:28.160Z,11.07
2022-11-17T11:22:27.398Z,11.11
2022-11-17T11:25:05.062Z,11.17
2022-11-17T11:27:57.056Z,11.21
2022-11-17T11:30:29.165Z,11.23
2022-11-17T11:33:10.165Z,11.26
2022-11-17T11:35:49.718Z,11.27
2022-11-17T11:38:31.639Z,11.31
2022-11-17T11:41:16.169Z,11.33
2022-11-17T11:43:55.705Z,11.32
2022-11-17T11:46:33.155Z,11.33
2022-11-17T11:49:09.228Z,11.34
2022-11-17T11:51:39.954Z,11.34
2022-11-17T11:54:13.340Z,11.34
2022-11-17T11:56:45.894Z,11.35
2022-11-17T11:59:19.375Z,11.36
2022-11-17T12:01:57.210Z,11.36
2022-11-17T12:04:37.814Z,11.38
2022-11-17T12:07:16.195Z,11.37
2022-11-17T12:10:02.548Z,11.39
2022-11-17T12:12:33.081Z,11.38
2022-11-17T12:15:10.796Z,11.42
2022-11-17T12:17:58.552Z,11.45
2022-11-17T12:20:49.448Z,11.50
2022-11-17T12:23:27.056Z,11.55
2022-11-17T12:25:57.915Z,11.56
2022-11-17T12:28:32.094Z,11.55
2022-11-17T12:31:06.728Z,11.57
2022-11-17T12:34:18.565Z,11.59
2022-11-17T12:37:21.914Z,11.61
2022-11-17T12:40:06.242Z,11.61
2022-11-17T12:42:35.165Z,11.60
2022-11-17T12:45:07.265Z,11.63
2022-11-17T12:47:36.160Z,11.64
2022-11-17T12:50:49.851Z,11.66
2022-11-17T12:53:40.086Z,11.70
2022-11-17T12:56:24.274Z,11.74
2022-11-17T12:59:05.417Z,11.75
2022-11-17T13:01:42.298Z,11.75
2022-11-17T13:04:15.217Z,11.74
2022-11-17T13:07:03.244Z,11.74
2022-11-17T13:09:36.351Z,11.72
2022-11-17T13:12:06.944Z,11.73
2022-11-17T13:14:36.586Z,11.74
2022-11-17T13:17:04.691Z,11.71
2022-11-17T13:19:37.179Z,11.70
2022-11-17T13:22:14.909Z,11.73
2022-11-17T13:24:44.198Z,11.72
2022-11-17T13:27:21.404Z,11.68
2022-11-17T13:29:49.687Z,11.68
2022-11-17T13:32:22.084Z,11.68
2022-11-17T13:34:52.387Z,11.65
2022-11-17T13:37:27.158Z,11.66
2022-11-17T13:39:56.922Z,11.65
2022-11-17T13:42:27.144Z,11.65
2022-11-17T13:44:57.092Z,11.63
2022-11-17T13:47:41.100Z,11.63
2022-11-17T13:50:39.465Z,11.59
2022-11-17T13:53:24.645Z,11.58
2022-11-17T13:55:53.081Z,11.56
2022-11-17T13:58:35.013Z,11.57
2022-11-17T14:01:02.717Z,11.57
2022-11-17T14:03:36.568Z,11.56
2022-11-17T14:06:06.737Z,11.53
2022-11-17T14:08:36.680Z,11.52
2022-11-17T14:11:15.106Z,11.50
2022-11-17T14:13:50.074Z,11.49
2022-11-17T14:16:24.818Z,11.47
2022-11-17T14:18:59.106Z,11.46
2022-11-17T14:21:29.060Z,11.48
2022-11-17T14:24:11.177Z,11.43
2022-11-17T14:26:44.368Z,11.40
2022-11-17T14:29:14.077Z,11.38
2022-11-17T14:31:44.201Z,11.37
2022-11-17T14:34:16.699Z,11.34
2022-11-17T14:36:48.761Z,11.32
2022-11-17T14:39:19.311Z,11.29
2022-11-17T14:41:49.678Z,11.27
2022-11-17T14:44:17.668Z,11.25
2022-11-17T14:46:46.079Z,11.25
2022-11-17T14:49:13.965Z,11.24
2022-11-17T14:51:44.088Z,11.21
2022-11-17T14:54:11.601Z,11.20
2022-11-17T14:56:43.166Z,11.17
2022-11-17T14:59:11.456Z,11.18
2022-11-17T15:01:39.498Z,11.14
2022-11-17T15:04:34.493Z,11.13
2022-11-17T15:06:55.445Z,11.10
2022-11-17T15:09:23.151Z,11.07
2022-11-17T15:11:52.517Z,11.05
2022-11-17T15:14:20.345Z,11.03
2022-11-17T15:16:48.024Z,11.01
2022-11-17T15:19:15.539Z,10.99
2022-11-17T15:21:43.205Z,10.96
2022-11-17T15:24:12.086Z,10.94
2022-11-17T15:26:39.613Z,10.92
2022-11-17T15:29:33.942Z,10.91
2022-11-17T15:32:03.150Z,10.87
2022-11-17T15:34:30.758Z,10.86
2022-11-17T15:36:59.405Z,10.84
2022-11-17T15:39:26.976Z,10.81
2022-11-17T15:41:54.892Z,10.79
2022-11-17T15:44:23.084Z,10.79
2022-11-17T15:46:52.029Z,10.76
2022-11-17T15:49:21.114Z,10.76
2022-11-17T15:51:48.916Z,10.74
2022-11-17T15:54:20.746Z,10.73
2022-11-17T15:56:50.118Z,10.71
2022-11-17T15:59:17.995Z,10.69
2022-11-17T16:01:46.125Z,10.68
2022-11-17T16:04:16.276Z,10.66
2022-11-17T16:06:45.445Z,10.65
2022-11-17T16:09:13.522Z,10.63
2022-11-17T16:11:42.716Z,10.61
2022-11-17T16:14:11.628Z,10.59
2022-11-17T16:16:40.284Z,10.57
2022-11-17T16:19:10.564Z,10.55
2022-11-17T16:21:39.591Z,10.54
2022-11-17T16:24:11.947Z,10.53
2022-11-17T16:26:39.626Z,10.51
2022-11-17T16:29:08.722Z,10.49
2022-11-17T16:31:39.123Z,10.47
2022-11-17T16:34:08.802Z,10.46
2022-11-17T16:36:41.348Z,10.44
2022-11-17T16:39:11.606Z,10.41
2022-11-17T16:41:46.225Z,10.40
2022-11-17T16:44:18.236Z,10.39
2022-11-17T16:46:48.520Z,10.36
2022-11-17T16:49:18.373Z,10.35
2022-11-17T16:51:50.117Z,10.35
2022-11-17T16:54:18.699Z,10.35
2022-11-17T16:56:46.407Z,10.34
2022-11-17T16:59:15.607Z,10.33
2022-11-17T17:01:43.505Z,10.34
2022-11-17T17:04:12.078Z,10.33
2022-11-17T17:06:41.251Z,10.31
2022-11-17T17:09:12.232Z,10.30
2022-11-17T17:11:40.408Z,10.29
2022-11-17T17:14:12.490Z,10.27
2022-11-17T17:16:41.393Z,10.28
2022-11-17T17:19:11.674Z,10.27
2022-11-17T17:21:40.705Z,10.26
2022-11-17T17:24:11.163Z,10.25
2022-11-17T17:26:40.048Z,10.25
2022-11-17T17:29:12.476Z,10.23
2022-11-17T17:31:41.553Z,10.23
2022-11-17T17:34:12.463Z,10.22
2022-11-17T17:36:40.288Z,10.20
2022-11-17T17:39:08.982Z,10.19
2022-11-17T17:41:41.738Z,10.16
2022-11-17T17:44:14.136Z,10.15
2022-11-17T17:46:42.707Z,10.12
2022-11-17T17:49:12.122Z,10.11
2022-11-17T17:51:43.365Z,10.11
2022-11-17T17:54:16.136Z,10.09
2022-11-17T17:56:46.174Z,10.06
2022-11-17T17:59:14.567Z,10.06
2022-11-17T18:01:46.224Z,10.05
2022-11-17T18:04:16.493Z,10.03
2022-11-17T18:06:47.692Z,10.03
2022-11-17T18:09:18.695Z,10.03
2022-11-17T18:11:49.881Z,10.02
2022-11-17T18:14:20.320Z,10.00
2022-11-17T18:16:48.366Z,10.00
2022-11-17T18:19:17.157Z,10.01
2022-11-17T18:21:45.199Z,10.00
2022-11-17T18:24:13.855Z,9.99
2022-11-17T18:26:42.103Z,9.98
2022-11-17T18:29:14.891Z,10.00
2022-11-17T18:31:43.199Z,9.99
2022-11-17T18:34:16.509Z,9.99
2022-11-17T18:36:44.158Z,10.00
2022-11-17T18:39:12.666Z,9.99
2022-11-17T18:41:40.422Z,9.97
2022-11-17T18:44:08.161Z,9.97
2022-11-17T18:46:37.113Z,9.97
2022-11-17T18:49:05.252Z,9.95
2022-11-17T18:51:34.183Z,9.95
2022-11-17T18:54:03.049Z,9.94
2022-11-17T18:56:33.373Z,9.93
2022-11-17T18:59:01.305Z,9.92
2022-11-17T19:01:31.479Z,9.90
2022-11-17T19:04:01.360Z,9.89
2022-11-17T19:06:29.640Z,9.87
2022-11-17T19:08:59.540Z,9.84
2022-11-17T19:11:28.553Z,9.81
2022-11-17T19:13:56.226Z,9.78
2022-11-17T19:16:26.131Z,9.74
2022-11-17T19:19:00.152Z,9.69
2022-11-17T19:21:31.000Z,9.64
2022-11-17T19:24:01.082Z,9.59
2022-11-17T19:26:29.979Z,9.55
2022-11-17T19:28:59.022Z,9.51
2022-11-17T19:31:28.125Z,9.47
2022-11-17T19:33:58.181Z,9.42
2022-11-17T19:36:27.644Z,9.35
2022-11-17T19:38:58.138Z,9.29
2022-11-17T19:41:31.932Z,9.24
2022-11-17T19:44:01.250Z,9.18
2022-11-17T19:46:30.383Z,9.12
2022-11-17T19:48:58.846Z,9.06
2022-11-17T19:51:29.208Z,8.99
2022-11-17T19:53:59.721Z,8.93
2022-11-17T19:56:28.094Z,8.86
2022-11-17T19:58:56.457Z,8.80
2022-11-17T20:01:25.877Z,8.73
2022-11-17T20:03:54.359Z,8.68
2022-11-17T20:06:27.170Z,8.61
2022-11-17T20:08:55.126Z,8.56
2022-11-17T20:11:25.788Z,8.49
2022-11-17T20:13:54.328Z,8.44
2022-11-17T20:16:24.459Z,8.37
2022-11-17T20:18:54.186Z,8.33
2022-11-17T20:21:23.098Z,8.26
2022-11-17T20:23:51.107Z,8.23
2022-11-17T20:26:20.608Z,8.18
2022-11-17T20:28:50.619Z,8.16
2022-11-17T20:31:20.195Z,8.12
2022-11-17T20:33:49.623Z,8.10
2022-11-17T20:36:19.478Z,8.06
2022-11-17T20:38:51.349Z,8.03
2022-11-17T20:41:20.819Z,8.00
2022-11-17T20:43:51.119Z,7.97
2022-11-17T20:46:19.696Z,7.95
2022-11-17T20:48:48.157Z,7.94
2022-11-17T20:51:17.508Z,7.93
2022-11-17T20:53:45.527Z,7.92
2022-11-17T20:56:16.878Z,7.93
2022-11-17T20:58:44.881Z,7.91
2022-11-17T21:01:21.041Z,7.91
2022-11-17T21:03:49.214Z,7.88
2022-11-17T21:06:17.295Z,7.88
2022-11-17T21:11:55.166Z,7.83
2022-11-17T21:14:24.567Z,7.82
2022-11-17T21:16:54.518Z,7.80
2022-11-17T21:19:22.663Z,7.80
2022-11-17T21:21:51.174Z,7.78
2022-11-17T21:24:18.842Z,7.80
2022-11-17T21:26:46.420Z,7.80
2022-11-17T21:29:14.658Z,7.82
2022-11-17T21:31:42.363Z,7.83
2022-11-17T21:34:17.053Z,7.84
2022-11-17T21:36:46.632Z,7.83
2022-11-17T21:39:18.522Z,7.84
2022-11-17T21:41:46.598Z,7.85
2022-11-17T21:44:14.980Z,7.85
2022-11-17T21:46:42.601Z,7.85
2022-11-17T21:49:10.758Z,7.85
2022-11-17T21:51:39.838Z,7.85
2022-11-17T21:54:08.938Z,7.87
2022-11-17T21:56:37.084Z,7.87
2022-11-17T21:59:07.115Z,7.87
2022-11-17T22:01:35.268Z,7.86
2022-11-17T22:04:03.423Z,7.86
2022-11-17T22:06:32.318Z,7.87
2022-11-17T22:09:02.103Z,7.84
2022-11-17T22:11:37.984Z,7.83
2022-11-17T22:14:10.129Z,7.81
2022-11-17T22:16:39.548Z,7.80
2022-11-17T22:19:08.136Z,7.78
2022-11-17T22:21:37.161Z,7.76
2022-11-17T22:24:11.113Z,7.76
2022-11-17T22:26:40.901Z,7.75
2022-11-17T22:29:12.095Z,7.73
2022-11-17T22:31:39.763Z,7.72
2022-11-17T22:34:11.122Z,7.70
2022-11-17T22:36:38.737Z,7.69
2022-11-17T22:39:09.200Z,7.67
2022-11-17T22:41:37.078Z,7.64
2022-11-17T22:44:06.092Z,7.63
2022-11-17T22:46:36.157Z,7.60
2022-11-17T22:49:04.141Z,7.56
2022-11-17T22:51:51.126Z,7.54
2022-11-17T22:54:20.930Z,7.50
2022-11-17T22:56:49.168Z,7.47
2022-11-17T22:59:17.421Z,7.44
2022-11-17T23:01:46.113Z,7.41
2022-11-17T23:04:16.225Z,7.36
2022-11-17T23:06:44.292Z,7.32
2022-11-17T23:09:13.472Z,7.28
2022-11-17T23:11:44.601Z,7.23
2022-11-17T23:14:15.209Z,7.18
2022-11-17T23:16:43.823Z,7.15
2022-11-17T23:19:15.600Z,7.11
2022-11-17T23:21:43.491Z,7.05
2022-11-17T23:24:14.551Z,7.00
2022-11-17T23:26:45.006Z,6.93
2022-11-17T23:29:12.526Z,6.88
2022-11-17T23:31:41.125Z,6.84
2022-11-17T23:34:09.751Z,6.79
2022-11-17T23:36:37.378Z,6.75
2022-11-17T23:39:05.723Z,6.69
2022-11-17T23:41:35.227Z,6.64
2022-11-17T23:44:04.771Z,6.59
2022-11-17T23:46:32.343Z,6.54
2022-11-17T23:49:00.114Z,6.49
2022-11-17T23:51:29.703Z,6.43
2022-11-17T23:53:59.380Z,6.38
2022-11-17T23:56:28.124Z,6.35
2022-11-17T23:58:55.681Z,6.28
